createdAt,value
2022-09-28T00:03:39.136Z,98460.58
2022-09-28T00:10:03.467Z,98457.85
2022-09-28T00:16:27.828Z,98451.34
2022-09-28T00:22:52.113Z,98450.71
2022-09-28T00:29:16.550Z,98438.04
2022-09-28T00:35:40.923Z,98437.09
2022-09-28T00:42:07.719Z,98432.29
2022-09-28T00:48:41.074Z,98434.73
2022-09-28T00:55:05.308Z,98432.96
2022-09-28T01:01:29.675Z,98432.86
2022-09-28T01:07:54.549Z,98432.84
2022-09-28T01:14:18.878Z,98434.13
2022-09-28T01:20:48.938Z,98435.93
2022-09-28T01:27:17.054Z,98435.86
2022-09-28T01:33:36.451Z,98439.96
2022-09-28T01:40:00.744Z,98440.50
2022-09-28T01:46:24.959Z,98437.11
2022-09-28T01:52:52.102Z,98426.80
2022-09-28T01:59:22.481Z,98434.39
2022-09-28T02:05:58.674Z,98434.80
2022-09-28T02:12:22.949Z,98438.50
2022-09-28T02:18:47.214Z,98438.74
2022-09-28T02:25:23.796Z,98434.78
2022-09-28T02:31:48.088Z,98442.69
2022-09-28T02:38:12.433Z,98445.54
2022-09-28T02:44:48.495Z,98454.90
2022-09-28T02:51:15.868Z,98454.67
2022-09-28T02:57:46.023Z,98455.61
2022-09-28T03:04:26.773Z,98456.79
2022-09-28T03:11:09.653Z,98452.59
2022-09-28T03:17:33.855Z,98451.66
2022-09-28T03:23:58.039Z,98451.75
2022-09-28T03:30:22.375Z,98450.95
2022-09-28T03:36:49.536Z,98443.43
2022-09-28T03:43:13.972Z,98440.53
2022-09-28T03:49:38.286Z,98438.79
2022-09-28T03:56:02.485Z,98437.02
2022-09-28T04:02:26.890Z,98433.95
2022-09-28T04:08:51.447Z,98437.40
2022-09-28T04:15:15.742Z,98443.74
2022-09-28T04:21:40.046Z,98443.48
2022-09-28T04:28:05.286Z,98445.98
2022-09-28T04:34:34.531Z,98442.58
2022-09-28T04:40:52.550Z,98440.27
2022-09-28T04:47:16.885Z,98436.55
2022-09-28T04:53:56.409Z,98434.67
2022-09-28T05:00:20.689Z,98437.11
2022-09-28T05:06:45.172Z,98441.64
2022-09-28T05:13:09.560Z,98448.20
2022-09-28T05:19:36.503Z,98460.49
2022-09-28T05:26:01.197Z,98455.73
2022-09-28T05:32:25.485Z,98460.18
2022-09-28T05:38:48.694Z,98467.89
2022-09-28T05:45:13.073Z,98484.87
2022-09-28T05:51:37.387Z,98493.52
2022-09-28T05:58:01.694Z,98502.38
2022-09-28T06:04:25.888Z,98506.20
2022-09-28T06:10:50.212Z,98506.65
2022-09-28T06:17:17.299Z,98512.30
2022-09-28T06:23:45.611Z,98513.67
2022-09-28T06:30:12.662Z,98513.77
2022-09-28T06:36:37.147Z,98515.05
2022-09-28T06:43:01.654Z,98513.67
2022-09-28T06:49:24.499Z,98514.77
2022-09-28T06:56:06.966Z,98518.71
2022-09-28T07:02:31.300Z,98524.45
2022-09-28T07:09:29.221Z,98536.75
2022-09-28T07:16:04.386Z,98533.05
2022-09-28T07:22:40.369Z,98534.04
2022-09-28T07:29:07.384Z,98538.23
2022-09-28T07:35:34.858Z,98539.08
2022-09-28T07:42:03.059Z,98543.94
2022-09-28T07:48:27.524Z,98549.87
2022-09-28T07:54:54.534Z,98549.23
2022-09-28T08:01:21.800Z,98556.20
2022-09-28T08:07:48.850Z,98558.25
2022-09-28T08:14:13.114Z,98560.48
2022-09-28T08:20:50.794Z,98566.39
2022-09-28T08:27:15.971Z,98564.29
2022-09-28T08:33:39.167Z,98568.08
2022-09-28T08:40:15.716Z,98572.55
2022-09-28T08:46:40.063Z,98568.08
2022-09-28T08:53:13.281Z,98567.19
2022-09-28T08:59:52.340Z,98565.41
2022-09-28T09:06:18.728Z,98561.77
2022-09-28T09:12:46.145Z,98559.50
2022-09-28T09:19:19.449Z,98559.96
2022-09-28T09:25:49.332Z,98564.77
2022-09-28T09:32:22.391Z,98570.84
2022-09-28T09:38:48.005Z,98574.10
2022-09-28T09:45:25.734Z,98577.84
2022-09-28T09:51:58.948Z,98579.67
2022-09-28T09:58:19.682Z,98583.94
2022-09-28T10:04:44.017Z,98586.48
2022-09-28T10:11:13.941Z,98588.27
2022-09-28T10:17:38.496Z,98597.04
2022-09-28T10:24:01.226Z,98605.83
2022-09-28T10:30:25.547Z,98599.93
2022-09-28T10:36:49.822Z,98603.54
2022-09-28T10:43:14.162Z,98599.64
2022-09-28T10:49:53.436Z,98597.98
2022-09-28T10:56:23.662Z,98598.65
2022-09-28T11:02:47.994Z,98597.35
2022-09-28T11:09:12.351Z,98590.75
2022-09-28T11:15:36.822Z,98585.69
2022-09-28T11:22:22.213Z,98588.64
2022-09-28T11:28:52.792Z,98589.25
2022-09-28T11:35:26.415Z,98589.05
2022-09-28T11:41:53.866Z,98592.81
2022-09-28T11:48:27.513Z,98588.08
2022-09-28T11:54:51.824Z,98595.06
2022-09-28T12:01:19.279Z,98597.52
2022-09-28T12:07:44.514Z,98605.59
2022-09-28T12:14:04.662Z,98610.73
2022-09-28T12:20:28.558Z,98614.66
2022-09-28T12:27:04.669Z,98605.04
2022-09-28T12:33:53.074Z,98602.10
2022-09-28T12:40:23.143Z,98610.34
2022-09-28T12:47:02.520Z,98608.86
2022-09-28T12:53:44.258Z,98603.34
2022-09-28T13:00:11.334Z,98593.95
2022-09-28T13:06:49.769Z,98600.34
2022-09-28T13:13:29.482Z,98598.99
2022-09-28T13:19:59.595Z,98597.65
2022-09-28T13:26:23.919Z,98595.41
2022-09-28T13:32:48.186Z,98591.17
2022-09-28T13:39:24.263Z,98592.45
2022-09-28T13:45:50.825Z,98588.98
2022-09-28T13:52:30.189Z,98587.39
2022-09-28T13:58:57.290Z,98588.02
2022-09-28T14:05:33.608Z,98585.21
2022-09-28T14:12:13.078Z,98577.21
2022-09-28T14:19:01.673Z,98577.99
2022-09-28T14:25:28.516Z,98581.77
2022-09-28T14:31:56.026Z,98587.04
2022-09-28T14:38:18.992Z,98587.29
2022-09-28T14:44:52.103Z,98586.00
2022-09-28T14:51:19.166Z,98576.59
2022-09-28T14:57:46.472Z,98578.36
2022-09-28T15:04:10.879Z,98577.39
2022-09-28T15:10:35.576Z,98574.96
2022-09-28T15:16:59.925Z,98577.34
2022-09-28T15:23:20.033Z,98586.05
2022-09-28T15:29:44.421Z,98589.76
2022-09-28T15:36:14.604Z,98585.89
2022-09-28T15:42:39.105Z,98587.70
2022-09-28T15:49:38.182Z,98601.20
2022-09-28T15:56:06.118Z,98604.81
2022-09-28T16:02:30.504Z,98591.94
2022-09-28T16:09:00.767Z,98591.48
2022-09-28T16:15:25.067Z,98593.17
2022-09-28T16:21:49.383Z,98580.84
2022-09-28T16:28:33.638Z,98577.55
2022-09-28T16:35:01.862Z,98570.17
2022-09-28T16:41:26.129Z,98569.41
2022-09-28T16:47:50.391Z,98561.19
2022-09-28T16:54:15.637Z,98565.21
2022-09-28T17:00:39.946Z,98555.86
2022-09-28T17:07:04.472Z,98551.42
2022-09-28T17:13:28.739Z,98548.20
2022-09-28T17:19:58.655Z,98547.56
2022-09-28T17:26:23.425Z,98545.80
2022-09-28T17:32:47.648Z,98540.91
2022-09-28T17:39:11.945Z,98533.86
2022-09-28T17:45:36.269Z,98529.99
2022-09-28T17:51:53.266Z,98532.19
2022-09-28T17:58:17.505Z,98532.48
2022-09-28T18:04:51.747Z,98524.86
2022-09-28T18:11:16.891Z,98530.06
2022-09-28T18:17:41.488Z,98556.15
2022-09-28T18:24:05.718Z,98572.98
2022-09-28T18:30:30.090Z,98577.29
2022-09-28T18:36:54.263Z,98590.48
2022-09-28T18:43:18.532Z,98608.02
2022-09-28T18:49:46.545Z,98616.26
2022-09-28T18:56:11.303Z,98626.16
2022-09-28T19:02:35.699Z,98628.30
2022-09-28T19:09:00.205Z,98635.27
2022-09-28T19:15:24.587Z,98652.90
2022-09-28T19:21:48.800Z,98668.15
2022-09-28T19:28:13.538Z,98669.70
2022-09-28T19:34:37.818Z,98659.24
2022-09-28T19:41:02.216Z,98637.67
2022-09-28T19:47:29.638Z,98626.91
2022-09-28T19:53:53.926Z,98644.08
2022-09-28T20:00:18.271Z,98634.15
2022-09-28T20:06:42.567Z,98616.95
2022-09-28T20:13:06.876Z,98596.77
2022-09-28T20:19:31.160Z,98594.60
2022-09-28T20:25:55.374Z,98601.88
2022-09-28T20:32:19.601Z,98597.91
2022-09-28T20:38:43.996Z,98584.06
2022-09-28T20:45:08.186Z,98572.48
2022-09-28T20:51:41.245Z,98580.19
2022-09-28T20:58:05.527Z,98589.83
2022-09-28T21:04:28.833Z,98594.79
2022-09-28T21:10:53.144Z,98597.71
2022-09-28T21:17:17.459Z,98600.91
2022-09-28T21:23:41.719Z,98599.95
2022-09-28T21:30:06.066Z,98604.35
2022-09-28T21:36:30.277Z,98624.38
2022-09-28T21:42:54.705Z,98635.89
2022-09-28T21:49:18.950Z,98637.11
2022-09-28T21:55:43.240Z,98649.23
2022-09-28T22:02:07.775Z,98653.46
2022-09-28T22:08:32.154Z,98660.99
2022-09-28T22:14:56.465Z,98657.29
2022-09-28T22:21:20.611Z,98663.64
2022-09-28T22:27:44.982Z,98661.27
2022-09-28T22:34:09.264Z,98659.22
2022-09-28T22:40:33.601Z,98659.30
2022-09-28T22:47:07.153Z,98654.85
2022-09-28T22:53:22.922Z,98665.75
2022-09-28T22:59:47.167Z,98659.88
2022-09-28T23:06:11.564Z,98666.67
2022-09-28T23:12:35.850Z,98664.14
2022-09-28T23:19:02.978Z,98665.23
2022-09-28T23:25:27.278Z,98671.48
2022-09-28T23:31:54.744Z,98680.29
2022-09-28T23:38:19.066Z,98684.55
2022-09-28T23:44:45.645Z,98694.18
2022-09-28T23:51:10.232Z,98709.84
2022-09-28T23:57:34.542Z,98710.08
